Time;durP1;ratioP1;P1;durP2;ratioP2;P2;SDS_P1;SDS_P2;PMS_P1;PMS_P2;Temp;Humidity;BMP_temperature;BMP_pressure;BME280_temperature;BME280_humidity;BME280_pressure;Samples;Min_cycle;Max_cycle;Signal;HPM_P1;HPM_P2
2021/03/25 00:02:12;;;;;;;3.90;2.50;;;20.20;28.90;;;;;;8394186;28;20105;-57
2021/03/25 00:06:12;;;;;;;5.10;2.90;;;20.10;28.80;;;;;;8395829;28;20029;-58
2021/03/25 00:10:18;;;;;;;4.03;2.53;;;20.10;28.80;;;;;;8395691;28;20060;-57
2021/03/25 00:14:19;;;;;;;3.70;2.75;;;20.10;28.90;;;;;;8394565;28;20033;-57
2021/03/25 00:18:20;;;;;;;5.97;2.50;;;20.10;28.90;;;;;;8399966;28;20140;-55
2021/03/25 00:22:20;;;;;;;6.88;2.40;;;20.10;28.90;;;;;;8395370;28;20429;-56
2021/03/25 00:26:21;;;;;;;3.40;2.07;;;20.00;28.90;;;;;;8393827;28;20115;-56
2021/03/25 00:30:25;;;;;;;3.47;2.43;;;20.00;28.90;;;;;;8394778;28;20028;-56
2021/03/25 00:34:25;;;;;;;3.40;2.20;;;20.00;28.90;;;;;;8399254;28;20421;-57
2021/03/25 00:38:26;;;;;;;4.07;2.70;;;19.90;28.90;;;;;;8393092;28;20032;-57
2021/03/25 00:42:26;;;;;;;4.70;2.40;;;20.00;28.90;;;;;;8394990;28;20044;-56
2021/03/25 00:46:27;;;;;;;3.37;2.30;;;19.90;28.90;;;;;;8394689;28;20033;-56
2021/03/25 00:50:33;;;;;;;3.73;2.43;;;19.90;29.00;;;;;;8393065;28;20309;-56
2021/03/25 00:54:34;;;;;;;4.57;2.10;;;19.90;29.00;;;;;;8398631;28;20041;-56
2021/03/25 00:58:34;;;;;;;4.07;2.80;;;19.90;29.00;;;;;;8394440;28;20039;-56
2021/03/25 01:02:35;;;;;;;3.50;2.30;;;19.80;29.00;;;;;;8406890;28;20051;-56
2021/03/25 01:06:35;;;;;;;3.63;2.13;;;19.80;29.00;;;;;;8425325;28;20035;-56
2021/03/25 01:10:46;;;;;;;2.80;2.43;;;19.80;29.00;;;;;;8431858;28;20416;-56
2021/03/25 01:14:47;;;;;;;2.47;2.17;;;19.80;29.00;;;;;;8395283;28;20037;-56
2021/03/25 01:18:47;;;;;;;3.37;2.23;;;19.70;29.00;;;;;;8413139;28;20033;-56
2021/03/25 01:22:48;;;;;;;4.30;2.23;;;19.80;29.00;;;;;;8416172;28;20318;-56
2021/03/25 01:26:49;;;;;;;2.60;2.33;;;19.70;29.00;;;;;;8392517;28;20025;-56
2021/03/25 01:30:49;;;;;;;4.30;2.42;;;19.70;29.00;;;;;;8396213;28;20033;-56
2021/03/25 01:34:50;;;;;;;4.28;2.60;;;19.70;29.40;;;;;;8392809;28;20044;-56
2021/03/25 01:38:51;;;;;;;3.50;2.10;;;19.70;29.00;;;;;;8391029;28;20083;-56
2021/03/25 01:43:23;;;;;;;4.77;2.70;;;19.70;29.00;;;;;;8392395;28;20113;-56
2021/03/25 01:47:24;;;;;;;3.45;2.28;;;19.60;29.00;;;;;;8395193;28;20043;-56
2021/03/25 01:51:51;;;;;;;3.80;2.47;;;19.60;29.00;;;;;;8392188;28;20041;-56
2021/03/25 01:56:01;;;;;;;5.63;2.53;;;19.60;29.00;;;;;;8392121;28;20037;-56
2021/03/25 02:00:09;;;;;;;3.17;2.38;;;19.60;29.00;;;;;;8390694;28;20124;-56
2021/03/25 02:04:46;;;;;;;3.60;2.63;;;19.60;29.00;;;;;;8399772;28;20044;-56
2021/03/25 02:09:13;;;;;;;4.10;2.50;;;19.60;29.00;;;;;;8419793;28;20094;-56
2021/03/25 02:14:07;;;;;;;3.17;2.42;;;19.50;29.00;;;;;;8396534;28;20119;-56
2021/03/25 02:18:16;;;;;;;3.35;2.42;;;19.50;29.00;;;;;;8357865;28;20037;-56
2021/03/25 02:22:41;;;;;;;6.10;2.80;;;19.50;29.00;;;;;;8374964;28;20109;-55
2021/03/25 02:26:51;;;;;;;6.05;2.53;;;19.50;29.00;;;;;;8389773;28;20040;-56
2021/03/25 02:31:05;;;;;;;3.78;2.33;;;19.50;29.00;;;;;;8391356;28;20044;-56
2021/03/25 02:35:22;;;;;;;3.70;2.10;;;19.40;29.00;;;;;;8389816;28;20032;-56
2021/03/25 02:39:35;;;;;;;3.83;2.15;;;19.40;29.00;;;;;;8395708;28;20029;-56
2021/03/25 02:43:56;;;;;;;3.55;2.45;;;19.40;29.00;;;;;;8394385;28;20437;-56
2021/03/25 02:48:14;;;;;;;2.88;2.25;;;19.40;29.00;;;;;;8411932;28;20028;-55
2021/03/25 02:52:21;;;;;;;2.65;2.10;;;19.40;29.00;;;;;;8405469;28;20127;-56
2021/03/25 02:56:21;;;;;;;2.80;2.35;;;19.40;29.00;;;;;;8389384;28;20043;-56
2021/03/25 03:00:35;;;;;;;3.37;2.33;;;19.40;29.00;;;;;;8392828;28;20389;-56
2021/03/25 03:04:38;;;;;;;3.50;2.28;;;19.40;29.10;;;;;;8395256;28;20041;-56
2021/03/25 03:08:43;;;;;;;2.90;2.20;;;19.30;29.00;;;;;;8388898;28;20039;-56
2021/03/25 03:12:46;;;;;;;3.47;2.38;;;19.30;29.00;;;;;;8390996;28;20044;-56
2021/03/25 03:16:53;;;;;;;2.67;2.00;;;19.30;29.00;;;;;;8390570;28;20025;-56
2021/03/25 03:20:59;;;;;;;3.72;2.35;;;19.30;29.00;;;;;;8393324;28;20040;-56
2021/03/25 03:25:02;;;;;;;3.63;2.40;;;19.30;29.00;;;;;;8390559;28;20040;-56
2021/03/25 03:29:06;;;;;;;2.83;2.10;;;19.30;29.00;;;;;;8391439;28;20041;-56
2021/03/25 03:33:47;;;;;;;3.78;2.55;;;19.30;29.00;;;;;;8396945;28;20549;-56
2021/03/25 03:37:54;;;;;;;3.97;2.23;;;19.20;29.00;;;;;;8396119;28;20067;-56
2021/03/25 03:41:59;;;;;;;3.63;2.10;;;19.20;29.00;;;;;;8399149;28;20417;-56
2021/03/25 03:46:05;;;;;;;3.15;2.17;;;19.30;29.10;;;;;;8399128;28;20138;-56
2021/03/25 03:50:13;;;;;;;5.03;2.53;;;19.20;29.10;;;;;;8394440;28;20060;-56
2021/03/25 03:54:15;;;;;;;3.30;2.15;;;19.20;29.00;;;;;;8396327;28;20450;-56
2021/03/25 03:58:39;;;;;;;4.05;2.35;;;19.20;29.10;;;;;;8395801;28;20024;-56
2021/03/25 04:02:57;;;;;;;3.88;2.47;;;19.20;29.10;;;;;;8398590;28;20032;-56
2021/03/25 04:07:04;;;;;;;3.78;2.55;;;19.20;29.10;;;;;;8367226;28;20037;-56
2021/03/25 04:11:10;;;;;;;4.43;3.13;;;19.20;29.10;;;;;;8387440;28;20044;-56
2021/03/25 04:15:33;;;;;;;3.85;2.28;;;19.10;29.10;;;;;;8396130;28;20051;-56
2021/03/25 04:19:46;;;;;;;3.08;2.30;;;19.20;29.10;;;;;;8395260;28;20033;-56
2021/03/25 04:23:48;;;;;;;4.05;2.50;;;19.20;29.10;;;;;;8393412;28;20040;-56
2021/03/25 04:27:53;;;;;;;4.22;2.30;;;19.20;29.10;;;;;;8399402;28;20119;-56
2021/03/25 04:31:55;;;;;;;2.67;2.30;;;19.20;29.00;;;;;;8420473;28;20032;-56
2021/03/25 04:35:57;;;;;;;3.58;2.47;;;19.30;29.00;;;;;;8410381;28;20495;-55
2021/03/25 04:40:01;;;;;;;4.07;2.42;;;19.30;29.00;;;;;;8393396;28;20520;-56
2021/03/25 04:44:04;;;;;;;3.15;2.55;;;19.40;29.00;;;;;;8397181;28;20500;-56
2021/03/25 04:48:10;;;;;;;2.60;2.10;;;19.40;28.90;;;;;;8394280;28;20036;-56
2021/03/25 04:52:21;;;;;;;2.92;2.10;;;19.40;28.90;;;;;;8394581;28;20028;-56
2021/03/25 04:56:23;;;;;;;3.00;2.17;;;19.40;28.90;;;;;;8392597;28;20047;-55
2021/03/25 05:00:34;;;;;;;3.47;2.30;;;19.50;28.90;;;;;;8394286;28;20119;-56
2021/03/25 05:04:39;;;;;;;3.20;2.37;;;19.50;28.90;;;;;;8398318;28;20041;-56
2021/03/25 05:08:39;;;;;;;2.75;2.22;;;19.50;28.90;;;;;;8391926;28;20025;-56
2021/03/25 05:12:40;;;;;;;3.33;2.27;;;19.60;28.90;;;;;;8393594;28;20032;-56
2021/03/25 05:16:51;;;;;;;3.23;2.50;;;19.60;28.80;;;;;;8394086;28;20060;-57
2021/03/25 05:21:01;;;;;;;3.53;1.93;;;19.60;28.80;;;;;;8392721;28;20075;-57
2021/03/25 05:25:08;;;;;;;3.70;2.22;;;19.70;28.90;;;;;;8364552;28;20452;-56
2021/03/25 05:29:12;;;;;;;3.45;2.25;;;19.70;28.90;;;;;;8384740;28;20363;-56
2021/03/25 05:33:17;;;;;;;3.63;2.40;;;19.70;28.90;;;;;;8392834;28;20028;-56
2021/03/25 05:37:18;;;;;;;3.03;2.08;;;19.70;28.90;;;;;;8392717;28;20029;-56
2021/03/25 05:41:43;;;;;;;5.17;2.60;;;19.70;28.80;;;;;;8395421;28;20049;-56
2021/03/25 05:45:58;;;;;;;2.88;2.10;;;19.80;28.90;;;;;;8363955;28;20041;-56
2021/03/25 05:50:20;;;;;;;2.85;2.22;;;19.70;28.80;;;;;;8384894;28;20032;-56
2021/03/25 05:54:58;;;;;;;4.10;2.35;;;19.80;28.80;;;;;;8392182;28;20040;-56
2021/03/25 05:59:01;;;;;;;8.13;2.63;;;19.80;28.80;;;;;;8404614;28;20487;-56
2021/03/25 06:03:06;;;;;;;3.58;1.88;;;19.90;28.80;;;;;;8419634;28;20052;-56
2021/03/25 06:07:38;;;;;;;5.78;2.75;;;19.90;28.80;;;;;;8396447;28;20116;-57
2021/03/25 06:11:47;;;;;;;2.35;2.05;;;19.90;28.80;;;;;;8393409;28;20063;-56
2021/03/25 06:16:19;;;;;;;4.03;2.55;;;19.90;28.80;;;;;;8391887;28;20408;-57
2021/03/25 06:20:44;;;;;;;4.65;2.20;;;20.00;28.80;;;;;;8390149;28;20173;-56
2021/03/25 06:25:05;;;;;;;3.03;2.05;;;20.00;28.80;;;;;;8391437;28;20055;-56
2021/03/25 06:29:14;;;;;;;3.22;2.20;;;20.00;28.70;;;;;;8389663;28;20056;-56
2021/03/25 06:33:21;;;;;;;2.70;2.05;;;20.10;28.60;;;;;;8395673;28;20064;-56
2021/03/25 06:37:43;;;;;;;3.83;2.63;;;20.20;28.50;;;;;;8391063;28;20105;-57
2021/03/25 06:42:09;;;;;;;3.35;2.20;;;20.30;28.40;;;;;;8413068;28;20040;-56
2021/03/25 06:46:26;;;;;;;3.08;2.03;;;20.40;28.40;;;;;;8405957;28;20051;-56
2021/03/25 06:50:33;;;;;;;4.25;2.60;;;20.50;28.30;;;;;;8389274;28;20032;-56
2021/03/25 06:54:34;;;;;;;2.83;2.40;;;20.50;28.30;;;;;;8391144;28;20436;-56
2021/03/25 06:58:49;;;;;;;3.07;2.00;;;20.50;28.30;;;;;;8395468;28;20024;-56
2021/03/25 07:02:51;;;;;;;3.20;2.15;;;20.40;28.30;;;;;;8389255;28;20037;-56
2021/03/25 07:07:04;;;;;;;3.15;2.15;;;20.40;28.40;;;;;;8414083;28;20170;-56
2021/03/25 07:11:15;;;;;;;3.90;2.30;;;20.40;28.40;;;;;;8420131;28;20036;-56
2021/03/25 07:15:26;;;;;;;3.10;2.30;;;20.40;28.40;;;;;;8399098;28;20037;-57
2021/03/25 07:19:26;;;;;;;3.00;2.28;;;20.40;28.40;;;;;;8368592;28;20048;-57
2021/03/25 07:23:27;;;;;;;3.00;2.30;;;20.50;28.50;;;;;;8387561;28;20107;-57
2021/03/25 07:27:34;;;;;;;3.60;2.15;;;20.40;28.40;;;;;;8411572;28;20127;-56
2021/03/25 07:31:40;;;;;;;3.80;2.08;;;20.40;28.40;;;;;;8428845;28;20481;-56
2021/03/25 07:35:44;;;;;;;4.00;2.17;;;20.40;28.40;;;;;;8432822;28;20047;-56
2021/03/25 07:39:49;;;;;;;3.47;2.30;;;20.50;28.40;;;;;;8398574;28;20039;-56
2021/03/25 07:44:28;;;;;;;3.25;2.30;;;20.40;28.30;;;;;;8396241;28;20051;-57
2021/03/25 07:48:29;;;;;;;2.97;2.30;;;20.40;28.30;;;;;;8395750;28;20169;-56
2021/03/25 07:52:32;;;;;;;4.00;2.60;;;20.40;28.30;;;;;;8396049;28;20473;-56
2021/03/25 07:56:32;;;;;;;2.85;2.10;;;20.30;28.30;;;;;;8398778;28;20443;-56
2021/03/25 08:00:35;;;;;;;3.10;2.17;;;20.30;28.30;;;;;;8426863;28;20149;-57
2021/03/25 08:04:36;;;;;;;3.20;2.30;;;20.20;28.30;;;;;;8407191;28;20045;-56
2021/03/25 08:08:38;;;;;;;2.50;2.00;;;20.20;28.30;;;;;;8393705;28;20032;-56
2021/03/25 08:12:38;;;;;;;4.25;2.45;;;20.20;28.40;;;;;;8395158;28;20028;-57
2021/03/25 08:16:45;;;;;;;3.70;2.20;;;20.10;28.40;;;;;;8399623;28;20048;-57
2021/03/25 08:20:46;;;;;;;3.47;2.22;;;20.10;28.40;;;;;;8394153;28;20155;-57
2021/03/25 08:25:01;;;;;;;2.93;2.27;;;20.10;28.40;;;;;;8394708;28;20048;-57
2021/03/25 08:29:22;;;;;;;3.13;2.20;;;20.00;28.40;;;;;;8393482;28;20489;-57
2021/03/25 08:33:52;;;;;;;3.13;2.33;;;20.00;28.40;;;;;;8383268;28;20437;-56
2021/03/25 08:38:13;;;;;;;2.67;2.00;;;20.00;28.50;;;;;;8399487;28;20040;-57
2021/03/25 08:42:36;;;;;;;3.40;2.15;;;20.00;28.50;;;;;;8393146;28;20049;-57
2021/03/25 08:46:46;;;;;;;2.97;2.22;;;20.00;28.50;;;;;;8394852;28;20039;-56
2021/03/25 08:51:02;;;;;;;3.83;2.38;;;19.90;28.50;;;;;;8392595;28;20186;-57
2021/03/25 08:55:22;;;;;;;3.13;2.35;;;19.90;28.60;;;;;;8394586;28;20037;-56
2021/03/25 08:59:45;;;;;;;3.20;2.42;;;19.90;28.60;;;;;;8392516;28;20044;-55
2021/03/25 09:03:49;;;;;;;4.38;2.45;;;19.90;28.70;;;;;;8397877;28;20129;-56
2021/03/25 09:07:50;;;;;;;3.05;2.05;;;20.00;28.70;;;;;;8394024;28;20517;-56
2021/03/25 09:11:51;;;;;;;2.63;2.15;;;20.00;28.80;;;;;;8391952;28;20029;-55
2021/03/25 09:15:54;;;;;;;4.20;2.60;;;19.90;28.80;;;;;;8401437;28;20404;-56
2021/03/25 09:19:57;;;;;;;3.42;2.25;;;20.00;28.80;;;;;;8431322;28;20121;-56
2021/03/25 09:24:04;;;;;;;3.95;2.30;;;20.10;28.80;;;;;;8392112;28;20052;-56
2021/03/25 09:28:11;;;;;;;4.85;2.40;;;20.10;28.80;;;;;;8392736;28;20124;-56
2021/03/25 09:32:30;;;;;;;5.22;2.85;;;20.10;28.70;;;;;;8391597;28;20032;-57
2021/03/25 09:36:34;;;;;;;4.93;2.90;;;20.20;28.70;;;;;;8393148;28;20029;-57
2021/03/25 09:40:45;;;;;;;2.67;2.00;;;20.20;28.70;;;;;;8397361;28;20036;-57
2021/03/25 09:44:46;;;;;;;3.13;2.50;;;20.30;28.70;;;;;;8391877;28;20036;-57
2021/03/25 09:48:48;;;;;;;3.95;2.47;;;20.30;28.70;;;;;;8392411;28;20024;-56
2021/03/25 09:53:06;;;;;;;2.60;2.10;;;20.40;28.70;;;;;;8392334;28;20392;-57
2021/03/25 09:57:31;;;;;;;4.00;2.45;;;20.40;28.70;;;;;;8390779;28;20370;-57
2021/03/25 10:01:51;;;;;;;3.20;2.20;;;20.50;28.70;;;;;;8396547;28;20041;-57
2021/03/25 10:05:51;;;;;;;5.40;2.40;;;20.50;28.70;;;;;;8362043;28;20403;-57
2021/03/25 10:09:57;;;;;;;3.63;2.50;;;20.50;28.70;;;;;;8384015;28;20044;-57
2021/03/25 10:13:58;;;;;;;2.40;1.88;;;20.60;28.70;;;;;;8390226;28;20044;-56
2021/03/25 10:18:01;;;;;;;2.77;2.13;;;20.60;28.70;;;;;;8391391;28;20482;-55
2021/03/25 10:22:03;;;;;;;2.88;2.20;;;20.60;28.70;;;;;;8395765;28;20056;-57
2021/03/25 10:26:09;;;;;;;3.58;2.47;;;20.70;28.70;;;;;;8390005;28;20107;-56
2021/03/25 10:30:24;;;;;;;2.63;2.00;;;20.70;28.70;;;;;;8391319;28;20037;-56
2021/03/25 10:34:32;;;;;;;3.65;2.10;;;20.70;28.70;;;;;;8391219;28;20089;-56
2021/03/25 10:38:44;;;;;;;3.17;2.08;;;20.80;28.70;;;;;;8389383;28;20497;-56
2021/03/25 10:42:59;;;;;;;2.63;1.85;;;20.80;28.70;;;;;;8395441;28;20049;-56
2021/03/25 10:47:06;;;;;;;2.92;2.15;;;20.90;28.70;;;;;;8389180;28;20488;-55
2021/03/25 10:51:13;;;;;;;4.13;2.25;;;20.90;28.70;;;;;;8391184;28;20040;-56
2021/03/25 10:55:31;;;;;;;2.97;2.05;;;20.80;28.70;;;;;;8389372;28;20043;-56
2021/03/25 10:59:33;;;;;;;2.55;2.10;;;20.90;28.70;;;;;;8389673;28;20036;-56
2021/03/25 11:03:37;;;;;;;2.78;2.47;;;20.90;28.70;;;;;;8395011;28;20054;-56
2021/03/25 11:07:40;;;;;;;3.00;2.08;;;21.00;28.70;;;;;;8390945;28;20037;-55
2021/03/25 11:11:42;;;;;;;3.65;2.30;;;21.00;28.70;;;;;;8389011;28;20043;-56
2021/03/25 11:16:13;;;;;;;2.83;2.03;;;21.00;28.70;;;;;;8390282;28;20052;-56
2021/03/25 11:20:15;;;;;;;;;;;21.00;28.70;;;;;;8388591;28;20481;-56
2021/03/25 11:24:32;;;;;;;2.63;1.83;;;21.10;28.70;;;;;;8395223;28;19916;-56
2021/03/25 11:28:37;;;;;;;3.08;1.92;;;21.00;28.70;;;;;;8390916;28;20037;-56
2021/03/25 11:32:44;;;;;;;2.95;2.08;;;21.10;28.70;;;;;;8388700;28;20090;-56
2021/03/25 11:36:46;;;;;;;2.90;2.13;;;21.10;28.70;;;;;;8402170;28;20063;-56
2021/03/25 11:40:48;;;;;;;2.78;2.13;;;21.10;28.70;;;;;;8420881;28;20110;-56
2021/03/25 11:44:49;;;;;;;3.42;2.20;;;21.20;28.70;;;;;;8392764;28;20033;-57
2021/03/25 11:49:19;;;;;;;2.47;1.77;;;21.20;28.70;;;;;;8390799;28;20056;-56
2021/03/25 11:53:39;;;;;;;3.75;1.90;;;21.20;28.70;;;;;;8394606;28;20043;-56
2021/03/25 11:57:40;;;;;;;2.30;2.03;;;21.20;28.70;;;;;;8395992;28;20037;-56
2021/03/25 12:01:44;;;;;;;2.70;2.00;;;21.20;28.70;;;;;;8395894;28;20074;-57
2021/03/25 12:05:45;;;;;;;3.05;1.70;;;21.30;28.60;;;;;;8398349;28;20032;-57
2021/03/25 12:10:05;;;;;;;2.00;1.70;;;21.20;28.60;;;;;;8395715;28;20390;-57
2021/03/25 12:14:06;;;;;;;3.03;1.95;;;21.20;28.60;;;;;;8394305;28;20064;-58
2021/03/25 12:18:16;;;;;;;;;;;21.30;28.60;;;;;;8396653;28;20056;-56
2021/03/25 12:22:28;;;;;;;2.47;1.92;;;21.30;28.60;;;;;;8395086;28;19916;-57
2021/03/25 12:26:28;;;;;;;;;;;21.30;28.60;;;;;;8398531;28;20063;-57
2021/03/25 12:30:29;;;;;;;2.37;1.87;;;21.30;28.60;;;;;;8395438;28;19912;-57
2021/03/25 12:34:29;;;;;;;2.90;1.80;;;21.30;28.60;;;;;;8395206;28;20074;-56
2021/03/25 12:38:30;;;;;;;2.33;1.70;;;21.30;28.60;;;;;;8393044;28;20040;-56
2021/03/25 12:42:31;;;;;;;2.83;1.83;;;21.40;28.60;;;;;;8398904;28;20068;-57
2021/03/25 12:46:31;;;;;;;2.03;1.60;;;21.40;28.60;;;;;;8395355;28;20154;-57
2021/03/25 12:50:32;;;;;;;2.57;1.73;;;21.40;28.60;;;;;;8392813;28;20043;-57
2021/03/25 12:54:33;;;;;;;3.25;1.73;;;21.40;28.60;;;;;;8394330;28;20493;-56
2021/03/25 12:58:36;;;;;;;2.23;1.57;;;21.40;28.60;;;;;;8394818;28;20095;-56
2021/03/25 13:02:37;;;;;;;3.40;2.03;;;21.40;28.50;;;;;;8395635;28;20067;-56
2021/03/25 13:06:37;;;;;;;4.43;1.80;;;21.40;28.60;;;;;;8417639;28;20036;-56
2021/03/25 13:10:40;;;;;;;2.83;1.83;;;21.40;28.50;;;;;;8412293;28;20509;-56
2021/03/25 13:14:41;;;;;;;3.05;2.10;;;21.40;28.50;;;;;;8392494;28;20037;-56
2021/03/25 13:18:42;;;;;;;3.07;1.90;;;21.50;28.50;;;;;;8398134;28;20064;-56
2021/03/25 13:22:42;;;;;;;2.13;1.50;;;21.50;28.50;;;;;;8393285;27;20053;-56
2021/03/25 13:26:43;;;;;;;2.07;1.73;;;21.50;28.50;;;;;;8391951;28;20496;-56
2021/03/25 13:30:44;;;;;;;3.77;2.10;;;21.50;28.50;;;;;;8401374;28;20301;-56
2021/03/25 13:34:46;;;;;;;1.77;1.67;;;21.50;28.50;;;;;;8430756;28;20044;-56
2021/03/25 13:38:46;;;;;;;1.90;1.60;;;21.50;28.50;;;;;;8391667;28;20040;-56
2021/03/25 13:42:47;;;;;;;2.30;1.43;;;21.50;28.50;;;;;;8392689;28;20401;-56
2021/03/25 13:46:48;;;;;;;2.20;1.52;;;21.50;28.50;;;;;;8392628;28;20473;-56
2021/03/25 13:50:49;;;;;;;2.40;1.93;;;21.50;28.90;;;;;;8391026;28;20032;-56
2021/03/25 13:54:53;;;;;;;1.73;1.50;;;21.50;28.40;;;;;;8396893;28;20438;-56
2021/03/25 13:58:53;;;;;;;2.63;1.85;;;21.60;28.50;;;;;;8392228;28;20432;-56
2021/03/25 14:02:54;;;;;;;2.87;2.10;;;21.50;28.50;;;;;;8406245;28;20089;-58
2021/03/25 14:06:55;;;;;;;2.35;1.55;;;21.60;28.50;;;;;;8413464;28;20555;-56
2021/03/25 14:10:56;;;;;;;2.47;1.83;;;21.60;28.50;;;;;;8386087;28;20037;-54
2021/03/25 14:14:57;;;;;;;1.88;1.55;;;21.60;28.50;;;;;;8392073;27;20028;-56
2021/03/25 14:18:58;;;;;;;2.20;1.77;;;21.60;28.50;;;;;;8411649;28;20032;-56
2021/03/25 14:22:59;;;;;;;1.98;1.77;;;21.60;28.50;;;;;;8412347;28;20379;-56
2021/03/25 14:27:00;;;;;;;2.30;1.70;;;21.60;28.50;;;;;;8391332;28;20466;-56
2021/03/25 14:31:00;;;;;;;4.65;1.85;;;21.60;28.50;;;;;;8395984;28;20086;-56
2021/03/25 14:35:01;;;;;;;2.57;1.87;;;21.60;28.50;;;;;;8389740;28;20064;-56
2021/03/25 14:39:01;;;;;;;3.40;1.90;;;21.70;28.40;;;;;;8389396;28;20548;-55
2021/03/25 14:43:04;;;;;;;2.17;1.80;;;21.70;28.90;;;;;;8388342;28;20048;-55
2021/03/25 14:47:05;;;;;;;2.38;1.60;;;21.60;28.40;;;;;;8393815;28;20290;-55
2021/03/25 14:51:08;;;;;;;3.60;1.73;;;21.60;28.40;;;;;;8418769;28;20033;-55
2021/03/25 14:55:10;;;;;;;2.33;1.80;;;21.70;28.40;;;;;;8406051;28;20033;-54
2021/03/25 14:59:10;;;;;;;3.60;1.98;;;21.70;28.40;;;;;;8388992;28;20047;-50
2021/03/25 15:03:17;;;;;;;2.90;2.00;;;21.70;28.40;;;;;;8395239;28;20048;-55
2021/03/25 15:07:18;;;;;;;2.70;1.83;;;21.70;28.40;;;;;;8393049;28;20174;-55
2021/03/25 15:11:18;;;;;;;2.77;2.10;;;21.70;28.40;;;;;;8389342;28;20044;-54
2021/03/25 15:15:27;;;;;;;2.97;2.20;;;21.70;28.30;;;;;;8390523;28;20082;-52
2021/03/25 15:19:29;;;;;;;3.35;2.00;;;21.70;28.30;;;;;;8395269;28;20484;-55
2021/03/25 15:23:35;;;;;;;3.95;2.53;;;21.70;28.30;;;;;;8426666;28;20039;-55
2021/03/25 15:27:36;;;;;;;3.88;2.70;;;21.70;28.30;;;;;;8401034;28;20040;-55
2021/03/25 15:31:42;;;;;;;4.77;2.63;;;21.70;28.30;;;;;;8397257;28;20035;-55
2021/03/25 15:35:48;;;;;;;4.00;2.70;;;21.70;28.30;;;;;;8395087;28;20121;-55
2021/03/25 15:39:49;;;;;;;4.25;2.78;;;21.70;28.30;;;;;;8397070;28;20025;-55
2021/03/25 15:43:53;;;;;;;3.67;2.53;;;21.70;28.30;;;;;;8400950;28;20052;-55
2021/03/25 15:47:54;;;;;;;4.60;2.58;;;21.70;28.30;;;;;;8394881;28;20110;-54
2021/03/25 15:51:54;;;;;;;4.00;2.83;;;21.70;28.30;;;;;;8396435;27;20390;-54
2021/03/25 15:55:56;;;;;;;5.27;3.10;;;21.70;28.30;;;;;;8396501;28;20029;-55
2021/03/25 15:59:57;;;;;;;5.13;3.08;;;21.80;28.30;;;;;;8399320;28;20031;-55
2021/03/25 16:04:00;;;;;;;4.67;2.80;;;21.70;28.30;;;;;;8395680;28;20529;-55
2021/03/25 16:08:01;;;;;;;4.93;2.88;;;21.70;28.30;;;;;;8394095;28;20176;-54
2021/03/25 16:12:01;;;;;;;5.73;3.10;;;21.80;28.30;;;;;;8395913;28;20044;-54
2021/03/25 16:16:03;;;;;;;4.70;3.33;;;21.80;28.70;;;;;;8400207;28;20263;-56
2021/03/25 16:20:05;;;;;;;6.00;3.50;;;21.80;28.30;;;;;;8394033;28;20373;-56
2021/03/25 16:24:06;;;;;;;5.07;2.97;;;21.80;28.30;;;;;;8395268;28;20094;-54
2021/03/25 16:28:08;;;;;;;5.40;3.60;;;21.80;28.30;;;;;;8395537;27;20075;-55
2021/03/25 16:32:09;;;;;;;4.60;2.85;;;21.80;28.30;;;;;;8396051;28;20117;-55
2021/03/25 16:36:10;;;;;;;5.30;3.08;;;21.80;28.30;;;;;;8417095;28;20032;-56
2021/03/25 16:40:11;;;;;;;4.40;2.67;;;21.80;28.20;;;;;;8394868;28;20035;-54
2021/03/25 16:44:12;;;;;;;4.35;2.80;;;21.80;28.20;;;;;;8392067;28;20053;-56
2021/03/25 16:48:20;;;;;;;2.97;2.47;;;21.80;28.30;;;;;;8394676;28;20133;-54
2021/03/25 16:52:20;;;;;;;4.70;3.40;;;21.80;28.30;;;;;;8399059;28;20028;-54
2021/03/25 16:56:24;;;;;;;4.50;2.77;;;21.80;28.30;;;;;;8392747;28;20036;-56
2021/03/25 17:00:28;;;;;;;4.10;2.75;;;21.80;28.20;;;;;;8383588;28;20484;-56
2021/03/25 17:04:29;;;;;;;5.00;2.70;;;21.80;28.20;;;;;;8406033;28;20082;-55
2021/03/25 17:08:32;;;;;;;3.97;2.57;;;21.80;28.20;;;;;;8422676;28;20398;-55
2021/03/25 17:12:32;;;;;;;4.00;2.85;;;21.80;28.20;;;;;;8398205;28;20127;-56
2021/03/25 17:16:33;;;;;;;5.03;3.20;;;21.80;28.20;;;;;;8393891;27;20044;-56
2021/03/25 17:20:40;;;;;;;4.43;2.60;;;21.80;28.20;;;;;;8392378;27;20036;-56
2021/03/25 17:24:41;;;;;;;5.47;3.45;;;21.80;28.20;;;;;;8393865;28;20072;-56
2021/03/25 17:28:43;;;;;;;6.27;3.50;;;21.80;28.20;;;;;;8398030;28;20071;-57
2021/03/25 17:32:44;;;;;;;6.22;3.97;;;21.80;28.20;;;;;;8401043;28;20111;-56
2021/03/25 17:36:44;;;;;;;7.90;4.83;;;21.80;28.20;;;;;;8393066;28;20040;-56
2021/03/25 17:40:45;;;;;;;7.40;5.03;;;21.80;28.20;;;;;;8392950;28;20033;-57
2021/03/25 17:44:46;;;;;;;11.77;5.65;;;21.80;28.20;;;;;;8391034;28;20071;-57
2021/03/25 17:48:46;;;;;;;10.07;5.93;;;21.80;28.30;;;;;;8396346;28;20112;-57
2021/03/25 17:52:47;;;;;;;10.97;6.27;;;21.80;28.30;;;;;;8393196;28;20499;-55
2021/03/25 17:56:47;;;;;;;10.27;6.47;;;21.80;28.30;;;;;;8390885;28;20028;-57
2021/03/25 18:00:48;;;;;;;10.73;5.97;;;21.80;28.30;;;;;;8392808;28;20024;-56
2021/03/25 18:04:48;;;;;;;11.63;6.03;;;21.80;28.30;;;;;;8396588;28;20133;-57
2021/03/25 18:08:49;;;;;;;11.77;7.00;;;21.80;28.30;;;;;;8390370;28;20038;-57
2021/03/25 18:12:50;;;;;;;12.00;6.47;;;21.80;28.30;;;;;;8392032;28;20044;-55
2021/03/25 18:16:51;;;;;;;11.50;6.55;;;21.80;28.30;;;;;;8391897;28;20128;-55
2021/03/25 18:20:52;;;;;;;12.43;7.07;;;21.80;28.30;;;;;;8394650;28;20384;-56
2021/03/25 18:24:54;;;;;;;10.73;6.68;;;21.80;28.40;;;;;;8391371;28;20098;-56
2021/03/25 18:28:55;;;;;;;12.73;7.50;;;21.80;28.30;;;;;;8393794;28;20482;-57
2021/03/25 18:32:56;;;;;;;11.75;7.10;;;21.80;28.30;;;;;;8389659;28;20505;-56
2021/03/25 18:36:56;;;;;;;10.60;6.47;;;21.90;28.40;;;;;;8391273;28;20028;-55
2021/03/25 18:41:00;;;;;;;12.10;7.00;;;21.80;28.40;;;;;;8393836;28;20063;-56
2021/03/25 18:45:02;;;;;;;12.23;6.55;;;21.80;28.40;;;;;;8391219;28;20044;-56
2021/03/25 18:49:03;;;;;;;12.73;7.63;;;21.90;28.40;;;;;;8391079;27;20043;-56
2021/03/25 18:53:07;;;;;;;11.35;6.78;;;21.90;28.40;;;;;;8389509;28;20048;-55
2021/03/25 18:57:08;;;;;;;12.38;6.50;;;21.90;28.40;;;;;;8395518;27;20016;-55
2021/03/25 19:01:09;;;;;;;10.90;6.45;;;21.90;28.40;;;;;;8421444;28;20543;-56
2021/03/25 19:05:12;;;;;;;11.57;6.07;;;21.90;28.40;;;;;;8401002;28;20049;-56
2021/03/25 19:09:13;;;;;;;11.35;6.63;;;21.90;28.40;;;;;;8390768;28;20111;-57
2021/03/25 19:13:15;;;;;;;15.20;8.10;;;21.90;28.40;;;;;;8390995;28;20119;-55
2021/03/25 19:17:16;;;;;;;11.70;7.60;;;21.90;28.40;;;;;;8394027;28;20515;-55
2021/03/25 19:21:16;;;;;;;13.65;8.05;;;21.90;28.40;;;;;;8390984;28;20036;-57
2021/03/25 19:25:21;;;;;;;11.10;6.87;;;21.90;28.40;;;;;;8391352;28;20029;-57
2021/03/25 19:29:21;;;;;;;11.90;7.10;;;21.90;28.40;;;;;;8394519;28;20051;-56
2021/03/25 19:33:23;;;;;;;12.40;6.60;;;21.90;28.40;;;;;;8395745;28;20029;-57
2021/03/25 19:37:24;;;;;;;13.88;7.40;;;21.90;28.40;;;;;;8388869;28;20119;-55
2021/03/25 19:41:25;;;;;;;10.40;6.30;;;21.90;28.40;;;;;;8389223;27;20032;-58
2021/03/25 19:45:26;;;;;;;11.43;6.95;;;21.90;28.40;;;;;;8390436;28;20040;-57
2021/03/25 19:49:27;;;;;;;;;;;21.90;28.40;;;;;;8390949;28;20032;-56
2021/03/25 19:53:27;;;;;;;10.50;6.93;;;21.90;28.40;;;;;;8393171;28;19916;-57
2021/03/25 19:57:28;;;;;;;9.70;5.80;;;22.00;28.40;;;;;;8390425;28;20033;-57
2021/03/25 20:01:29;;;;;;;8.93;5.77;;;21.90;28.40;;;;;;8389956;28;20036;-58
2021/03/25 20:05:36;;;;;;;8.50;5.90;;;22.00;28.40;;;;;;8386707;28;20385;-57
2021/03/25 20:09:37;;;;;;;9.95;6.55;;;21.90;28.40;;;;;;8394542;28;20486;-58
2021/03/25 20:13:38;;;;;;;9.85;6.25;;;22.00;28.40;;;;;;8396400;28;20428;-57
2021/03/25 20:17:41;;;;;;;;;;;22.00;28.40;;;;;;8394467;28;20450;-58
2021/03/25 20:21:41;;;;;;;11.88;6.28;;;22.00;28.40;;;;;;8395631;28;20025;-58
2021/03/25 20:25:42;;;;;;;9.70;6.00;;;22.00;28.40;;;;;;8400124;28;20401;-58
2021/03/25 20:29:42;;;;;;;8.20;5.30;;;22.00;28.40;;;;;;8393695;28;20375;-57
2021/03/25 20:33:43;;;;;;;10.20;5.73;;;22.00;28.40;;;;;;8395175;28;20063;-58
2021/03/25 20:37:43;;;;;;;7.77;5.47;;;22.00;28.40;;;;;;8394928;28;20090;-57
2021/03/25 20:41:44;;;;;;;8.53;5.60;;;22.00;28.40;;;;;;8393413;28;20160;-57
2021/03/25 20:45:46;;;;;;;7.90;5.10;;;22.00;28.40;;;;;;8399117;28;20028;-57
2021/03/25 20:49:48;;;;;;;8.88;5.47;;;22.00;28.40;;;;;;8420771;28;20067;-58
2021/03/25 20:53:48;;;;;;;8.05;5.10;;;22.10;28.40;;;;;;8409169;28;20028;-58
2021/03/25 20:57:49;;;;;;;8.27;5.20;;;22.00;28.40;;;;;;8394455;28;20484;-58
2021/03/25 21:01:49;;;;;;;7.47;5.43;;;22.10;28.40;;;;;;8397906;28;20114;-58
2021/03/25 21:05:50;;;;;;;9.23;5.17;;;22.00;28.40;;;;;;8392752;28;20047;-57
2021/03/25 21:09:51;;;;;;;7.88;4.55;;;22.00;28.40;;;;;;8394125;28;20038;-58
2021/03/25 21:13:51;;;;;;;9.20;5.00;;;22.00;28.40;;;;;;8394530;28;20063;-58
2021/03/25 21:17:52;;;;;;;9.80;5.40;;;22.10;28.40;;;;;;8392876;28;20107;-58
2021/03/25 21:21:52;;;;;;;7.50;5.07;;;22.00;28.40;;;;;;8397352;28;20078;-58